Time;durP1;ratioP1;P1;durP2;ratioP2;P2;SDS_P1;SDS_P2;PMS_P1;PMS_P2;Temp;Humidity;BMP_temperature;BMP_pressure;BME280_temperature;BME280_humidity;BME280_pressure;Samples;Min_cycle;Max_cycle;Signal;HPM_P1;HPM_P2
2022/06/17 00:01:20;;;;;;;4.60;2.60;;;16.60;69.10;;;;;;5053614;28;20151;-38
2022/06/17 00:03:48;;;;;;;5.38;3.38;;;16.60;69.10;;;;;;5051953;28;20020;-38
2022/06/17 00:06:14;;;;;;;7.82;3.40;;;16.50;69.20;;;;;;5051805;28;20031;-44
2022/06/17 00:08:43;;;;;;;7.82;3.28;;;16.50;69.40;;;;;;5051842;28;20043;-38
2022/06/17 00:11:23;;;;;;;8.25;2.97;;;16.50;70.10;;;;;;5053149;28;20043;-38
2022/06/17 00:13:49;;;;;;;4.63;3.13;;;16.40;70.80;;;;;;5053190;28;20017;-37
2022/06/17 00:16:18;;;;;;;4.60;3.47;;;16.30;71.20;;;;;;5053471;28;20255;-37
2022/06/17 00:18:43;;;;;;;5.45;3.40;;;16.30;71.50;;;;;;5053199;28;20031;-37
2022/06/17 00:21:37;;;;;;;6.75;3.33;;;16.20;71.60;;;;;;5051944;28;20112;-37
2022/06/17 00:24:14;;;;;;;5.90;3.47;;;16.20;71.70;;;;;;5050729;28;20124;-37
2022/06/17 00:26:39;;;;;;;3.88;3.25;;;16.20;71.90;;;;;;5052975;28;20044;-37
2022/06/17 00:29:05;;;;;;;7.88;3.70;;;16.20;71.90;;;;;;5053009;28;20029;-37
2022/06/17 00:31:30;;;;;;;4.95;3.03;;;16.10;72.40;;;;;;5053163;28;20024;-37
2022/06/17 00:33:56;;;;;;;4.97;2.97;;;16.00;72.50;;;;;;5051727;28;20133;-38
2022/06/17 00:36:22;;;;;;;4.32;3.10;;;16.00;72.50;;;;;;5052944;28;20025;-37
2022/06/17 00:38:54;;;;;;;5.05;3.25;;;16.00;72.70;;;;;;5052910;28;20373;-37
2022/06/17 00:41:23;;;;;;;4.50;3.22;;;16.00;72.50;;;;;;5053464;28;20033;-37
2022/06/17 00:43:48;;;;;;;3.70;3.28;;;16.00;72.40;;;;;;5053035;28;20017;-37
2022/06/17 00:46:29;;;;;;;8.00;3.60;;;16.00;72.50;;;;;;5053281;28;20067;-37
2022/06/17 00:49:20;;;;;;;6.72;4.05;;;15.90;72.80;;;;;;5053052;28;20544;-38
2022/06/17 00:51:58;;;;;;;4.65;4.18;;;15.90;73.20;;;;;;5053380;28;20017;-37
2022/06/17 00:54:29;;;;;;;5.57;4.57;;;15.80;73.60;;;;;;5053129;28;20465;-37
2022/06/17 00:56:56;;;;;;;4.80;3.25;;;15.80;74.00;;;;;;5053835;28;20075;-37
2022/06/17 00:59:25;;;;;;;4.88;4.25;;;15.80;74.20;;;;;;5051776;28;20021;-37
2022/06/17 01:02:01;;;;;;;6.70;3.90;;;15.80;74.10;;;;;;5055253;28;20052;-38
2022/06/17 01:04:48;;;;;;;7.38;4.18;;;15.80;74.20;;;;;;5057253;28;20029;-37
2022/06/17 01:07:25;;;;;;;6.35;3.20;;;15.80;74.10;;;;;;5057256;28;20025;-37
2022/06/17 01:09:57;;;;;;;6.60;3.47;;;15.80;73.90;;;;;;5057156;28;20067;-37
2022/06/17 01:12:27;;;;;;;6.90;3.40;;;15.80;73.70;;;;;;5056978;28;20029;-37
2022/06/17 01:14:55;;;;;;;3.10;2.80;;;15.80;73.60;;;;;;5056653;28;20124;-37
2022/06/17 01:17:21;;;;;;;4.78;3.83;;;15.80;73.60;;;;;;5056821;28;20394;-37
2022/06/17 01:19:51;;;;;;;7.28;3.70;;;15.80;73.60;;;;;;5056653;28;20082;-38
2022/06/17 01:22:24;;;;;;;5.50;3.53;;;15.80;73.70;;;;;;5056334;28;20035;-37
2022/06/17 01:24:52;;;;;;;3.40;3.10;;;15.80;73.70;;;;;;5054832;28;20230;-37
2022/06/17 01:27:21;;;;;;;4.35;3.05;;;15.80;73.80;;;;;;5054875;28;20186;-38
2022/06/17 01:29:47;;;;;;;6.38;3.00;;;15.80;74.00;;;;;;5054791;28;20131;-37
2022/06/17 01:32:16;;;;;;;5.55;3.80;;;15.70;73.80;;;;;;5056010;28;20054;-37
2022/06/17 01:34:42;;;;;;;3.67;3.38;;;15.70;73.70;;;;;;5055971;28;20028;-37
2022/06/17 01:37:09;;;;;;;6.10;3.08;;;15.60;73.70;;;;;;5056639;28;20049;-37
2022/06/17 01:39:35;;;;;;;5.78;3.20;;;15.70;73.40;;;;;;5056041;28;20120;-37
2022/06/17 01:42:01;;;;;;;6.05;3.80;;;15.70;73.10;;;;;;5056313;28;20166;-37
2022/06/17 01:44:35;;;;;;;4.70;3.50;;;15.70;73.10;;;;;;5054458;28;20086;-37
2022/06/17 01:47:05;;;;;;;6.35;3.75;;;15.60;73.40;;;;;;5054420;28;20433;-38
2022/06/17 01:49:48;;;;;;;7.65;3.58;;;15.60;73.70;;;;;;5056282;28;20025;-38
2022/06/17 01:52:22;;;;;;;3.83;3.13;;;15.50;74.30;;;;;;5055721;28;20033;-37
2022/06/17 01:55:03;;;;;;;6.95;3.75;;;15.40;74.40;;;;;;5055332;28;20023;-38
2022/06/17 01:57:37;;;;;;;5.57;3.72;;;15.40;74.40;;;;;;5055704;28;20025;-39
2022/06/17 02:00:25;;;;;;;3.47;3.17;;;15.40;74.30;;;;;;5055741;28;20021;-38
2022/06/17 02:02:55;;;;;;;3.92;3.10;;;15.40;74.40;;;;;;5055310;28;20025;-37
2022/06/17 02:05:24;;;;;;;4.47;3.42;;;15.40;74.40;;;;;;5055742;28;20051;-37
2022/06/17 02:07:55;;;;;;;6.95;3.75;;;15.40;74.10;;;;;;5054207;28;20033;-38
2022/06/17 02:10:22;;;;;;;;;;;15.50;73.90;;;;;;5054814;28;20098;-39
2022/06/17 02:12:48;;;;;;;4.45;3.88;;;15.50;73.70;;;;;;5055537;28;19904;-38
2022/06/17 02:15:14;;;;;;;11.75;6.13;;;15.50;73.50;;;;;;5054956;28;20049;-37
2022/06/17 02:17:43;;;;;;;11.77;3.58;;;15.50;73.50;;;;;;5055362;28;20081;-37
2022/06/17 02:20:12;;;;;;;4.53;3.83;;;15.50;73.50;;;;;;5054027;28;20059;-37
2022/06/17 02:22:37;;;;;;;5.75;3.78;;;15.50;73.70;;;;;;5054256;28;20477;-38
2022/06/17 02:25:09;;;;;;;4.85;3.75;;;15.60;73.60;;;;;;5055102;28;20078;-44
2022/06/17 02:27:35;;;;;;;4.25;3.78;;;15.60;73.50;;;;;;5054940;28;20036;-37
2022/06/17 02:30:06;;;;;;;5.70;3.50;;;15.50;74.00;;;;;;5055055;28;20533;-38
2022/06/17 02:32:33;;;;;;;5.03;4.10;;;15.50;74.30;;;;;;5054712;28;20078;-38
2022/06/17 02:35:01;;;;;;;5.55;3.97;;;15.60;74.20;;;;;;5054561;28;20025;-37
2022/06/17 02:37:28;;;;;;;7.75;3.85;;;15.60;74.20;;;;;;5055451;28;20017;-37
2022/06/17 02:39:57;;;;;;;4.50;3.28;;;15.40;74.60;;;;;;5054886;28;20112;-37
2022/06/17 02:42:27;;;;;;;4.60;3.50;;;15.30;75.30;;;;;;5053508;28;20017;-37
2022/06/17 02:44:54;;;;;;;;;;;15.10;75.90;;;;;;5055372;28;20024;-37
2022/06/17 02:47:21;;;;;;;7.05;4.25;;;15.10;76.00;;;;;;5054557;28;20065;-37
2022/06/17 02:49:47;;;;;;;8.00;4.32;;;15.10;76.00;;;;;;5054532;28;20040;-37
2022/06/17 02:52:19;;;;;;;6.22;4.10;;;15.10;76.00;;;;;;5054547;28;20028;-38
2022/06/17 20:18:34;;;;;;;9.82;6.15;;;24.50;49.10;;;;;;5071642;28;20413;-50
2022/06/17 20:20:59;;;;;;;16.05;10.38;;;24.40;49.20;;;;;;5070895;28;20050;-49
2022/06/17 20:23:29;;;;;;;10.98;7.22;;;24.30;49.50;;;;;;5071006;28;20032;-51
2022/06/17 20:25:55;;;;;;;12.23;6.50;;;24.30;49.20;;;;;;5071192;28;20385;-50
2022/06/17 20:28:21;;;;;;;9.98;7.32;;;24.30;49.20;;;;;;5069604;28;20020;-51
2022/06/17 20:30:47;;;;;;;16.98;9.48;;;24.30;49.60;;;;;;5069427;28;20029;-51
2022/06/17 20:33:14;;;;;;;14.02;7.82;;;24.30;49.90;;;;;;5070706;28;20053;-50
2022/06/17 20:35:41;;;;;;;11.00;6.15;;;24.30;49.90;;;;;;5070575;28;20033;-48
2022/06/17 20:38:07;;;;;;;14.63;9.15;;;24.30;50.10;;;;;;5070142;28;20029;-50
2022/06/17 20:40:41;;;;;;;11.55;7.05;;;24.20;50.40;;;;;;5070400;28;20088;-50
2022/06/17 20:43:08;;;;;;;9.15;5.72;;;24.20;50.50;;;;;;5070217;28;20105;-50
2022/06/17 20:51:13;;;;;;;9.15;5.10;;;24.00;51.30;;;;;;5070202;28;20031;-50
2022/06/17 20:53:39;;;;;;;9.13;5.18;;;23.80;51.70;;;;;;5068821;28;20033;-52
2022/06/17 20:56:18;;;;;;;6.25;4.63;;;23.80;52.00;;;;;;5069624;28;20025;-50
2022/06/17 20:58:45;;;;;;;9.15;5.88;;;23.80;52.40;;;;;;5070122;28;20025;-49
2022/06/17 21:01:14;;;;;;;10.90;4.93;;;23.80;52.60;;;;;;5070171;28;20056;-48
2022/06/17 21:03:42;;;;;;;9.52;6.90;;;23.70;52.90;;;;;;5068765;28;20016;-50
2022/06/17 21:06:13;;;;;;;10.70;6.65;;;23.70;53.00;;;;;;5068442;28;20499;-49
2022/06/17 21:08:41;;;;;;;8.50;5.88;;;23.70;53.20;;;;;;5069711;28;20078;-53
2022/06/17 21:11:07;;;;;;;12.88;5.60;;;23.60;53.50;;;;;;5069826;28;20025;-49
2022/06/17 21:13:36;;;;;;;7.35;4.97;;;23.60;54.00;;;;;;5069007;28;20078;-50
2022/06/17 21:16:03;;;;;;;8.95;6.95;;;23.50;54.20;;;;;;5069329;28;20098;-49
2022/06/17 21:18:29;;;;;;;7.80;5.32;;;23.50;54.70;;;;;;5067491;28;20067;-54
2022/06/17 21:20:57;;;;;;;9.88;5.70;;;23.40;54.60;;;;;;5069421;28;20025;-54
2022/06/17 21:23:31;;;;;;;10.40;6.10;;;23.40;54.90;;;;;;5070198;28;20081;-50
2022/06/17 21:25:58;;;;;;;12.75;6.07;;;23.30;55.60;;;;;;5068152;28;20028;-49
2022/06/17 21:28:27;;;;;;;12.93;7.05;;;23.30;56.10;;;;;;5064104;28;20072;-50
2022/06/17 21:30:55;;;;;;;12.05;5.88;;;23.20;56.40;;;;;;5056601;28;20469;-49
2022/06/17 21:33:23;;;;;;;8.63;5.32;;;23.20;56.90;;;;;;5055775;28;20025;-53
2022/06/17 21:35:50;;;;;;;8.20;5.32;;;23.10;57.20;;;;;;5056398;28;20423;-52
2022/06/17 21:38:20;;;;;;;7.32;5.10;;;23.10;57.60;;;;;;5054849;28;20035;-49
2022/06/17 21:40:49;;;;;;;14.80;5.88;;;23.10;57.80;;;;;;5055930;28;20044;-49
2022/06/17 21:43:19;;;;;;;7.38;4.75;;;23.00;58.20;;;;;;5054660;28;20029;-50
2022/06/17 21:45:45;;;;;;;9.68;5.18;;;22.90;58.30;;;;;;5055960;28;20464;-52
2022/06/17 21:48:10;;;;;;;9.70;5.88;;;22.90;58.40;;;;;;5056300;28;20159;-48
2022/06/17 21:50:38;;;;;;;8.38;4.93;;;22.80;58.90;;;;;;5055977;28;20079;-50
2022/06/17 21:53:10;;;;;;;9.57;5.30;;;22.80;58.90;;;;;;5056462;28;20222;-51
2022/06/17 21:55:38;;;;;;;13.38;5.25;;;22.80;58.80;;;;;;5054889;28;20496;-50
2022/06/17 21:58:05;;;;;;;7.85;4.70;;;22.70;59.00;;;;;;5054478;28;20021;-51
2022/06/17 22:00:36;;;;;;;6.32;4.88;;;22.70;58.80;;;;;;5054322;28;20378;-49
2022/06/17 22:03:08;;;;;;;11.65;5.22;;;22.70;59.20;;;;;;5055963;28;20028;-50
2022/06/17 22:05:34;;;;;;;6.00;3.63;;;22.60;59.30;;;;;;5056064;28;20423;-51
2022/06/17 22:08:00;;;;;;;7.07;4.18;;;22.60;59.10;;;;;;5055800;28;20036;-49
2022/06/17 22:10:29;;;;;;;7.32;3.58;;;22.50;59.60;;;;;;5054677;28;20134;-49
2022/06/17 22:12:55;;;;;;;7.43;3.03;;;22.60;58.50;;;;;;5055951;28;20035;-52
2022/06/17 22:15:25;;;;;;;6.57;3.70;;;22.60;58.40;;;;;;5055669;28;20029;-50
2022/06/17 22:17:51;;;;;;;5.63;3.65;;;22.60;59.10;;;;;;5055429;28;20048;-52
2022/06/17 22:20:19;;;;;;;5.18;3.88;;;22.50;58.90;;;;;;5056406;28;20047;-50
2022/06/17 22:22:45;;;;;;;5.15;3.13;;;22.50;58.90;;;;;;5055374;28;20021;-53
2022/06/17 22:25:22;;;;;;;5.25;3.65;;;22.60;58.20;;;;;;5054311;28;20111;-51
2022/06/17 22:27:51;;;;;;;5.15;3.35;;;22.60;58.30;;;;;;5054092;28;20507;-51
2022/06/17 22:30:22;;;;;;;5.35;4.35;;;22.50;57.90;;;;;;5036832;28;20082;-51
2022/06/17 22:32:51;;;;;;;5.30;3.55;;;22.50;58.30;;;;;;5053927;28;20036;-49
2022/06/17 22:35:22;;;;;;;6.38;2.75;;;22.50;58.20;;;;;;5055530;28;20024;-48
2022/06/17 22:37:55;;;;;;;5.18;2.72;;;22.40;58.30;;;;;;5055502;28;20025;-56
2022/06/17 22:40:26;;;;;;;8.93;3.08;;;22.50;58.30;;;;;;5054946;28;20087;-50
2022/06/17 22:42:53;;;;;;;5.32;2.15;;;22.60;57.70;;;;;;5055253;28;20025;-51
2022/06/17 22:45:19;;;;;;;5.72;4.07;;;22.80;57.00;;;;;;5055218;28;20021;-52
2022/06/17 22:47:50;;;;;;;3.10;2.80;;;22.70;57.00;;;;;;5055171;28;20480;-48
2022/06/17 22:50:22;;;;;;;5.57;4.28;;;22.60;57.20;;;;;;5054959;28;20036;-48
2022/06/17 22:52:49;;;;;;;5.72;3.00;;;22.50;57.20;;;;;;5054766;28;20021;-49
2022/06/17 22:55:18;;;;;;;6.38;3.15;;;22.60;56.80;;;;;;5054477;28;20028;-48
2022/06/17 22:57:44;;;;;;;4.05;3.05;;;22.70;56.40;;;;;;5053973;28;20408;-50
2022/06/17 23:00:17;;;;;;;6.68;2.70;;;22.70;56.30;;;;;;5053324;28;20053;-49
2022/06/17 23:02:43;;;;;;;4.30;3.05;;;22.80;56.00;;;;;;5054474;28;20048;-49
2022/06/17 23:05:24;;;;;;;9.18;3.00;;;22.80;55.70;;;;;;5054305;28;20025;-51
2022/06/17 23:07:50;;;;;;;3.78;2.70;;;22.90;55.20;;;;;;5054670;28;20351;-51
2022/06/17 23:10:26;;;;;;;9.20;2.58;;;22.80;55.50;;;;;;5054138;28;20036;-50
2022/06/17 23:12:53;;;;;;;12.95;3.33;;;22.90;54.80;;;;;;5054399;28;20029;-49
2022/06/17 23:15:22;;;;;;;6.78;3.13;;;22.80;55.20;;;;;;5054279;28;20441;-53
2022/06/17 23:20:38;;;;;;;4.32;2.55;;;22.70;55.30;;;;;;5053882;28;20032;-50
2022/06/17 23:23:15;;;;;;;5.10;3.25;;;22.70;55.70;;;;;;5053975;28;20025;-48
2022/06/17 23:25:41;;;;;;;3.45;2.30;;;22.60;55.90;;;;;;5054214;28;20436;-50
2022/06/17 23:28:17;;;;;;;5.97;2.60;;;22.60;55.80;;;;;;5054520;28;20025;-50
2022/06/17 23:30:43;;;;;;;4.32;2.63;;;22.50;56.20;;;;;;5054145;28;20490;-49
2022/06/17 23:33:12;;;;;;;4.15;2.20;;;22.40;56.30;;;;;;5053957;28;20021;-51
2022/06/17 23:35:38;;;;;;;7.10;2.27;;;22.30;56.50;;;;;;5054314;28;20057;-49
2022/06/17 23:38:11;;;;;;;2.97;2.67;;;22.30;56.80;;;;;;5053439;28;20028;-52
2022/06/17 23:40:38;;;;;;;5.47;2.35;;;22.20;56.90;;;;;;5053657;28;20025;-50
2022/06/17 23:43:04;;;;;;;6.85;3.47;;;22.20;56.80;;;;;;5053990;28;20099;-51
2022/06/17 23:45:32;;;;;;;4.78;2.13;;;22.20;57.10;;;;;;5053698;28;20106;-49
2022/06/17 23:48:01;;;;;;;5.18;2.75;;;22.20;57.20;;;;;;5053451;28;20035;-50
2022/06/17 23:50:33;;;;;;;3.58;2.15;;;22.20;56.90;;;;;;5053734;28;20337;-50
2022/06/17 23:53:01;;;;;;;9.10;2.50;;;22.30;56.40;;;;;;5053114;28;20033;-49
2022/06/17 23:55:28;;;;;;;3.08;2.63;;;22.30;56.10;;;;;;5052255;28;20033;-50
2022/06/17 23:57:54;;;;;;;4.03;2.42;;;22.20;56.40;;;;;;5053477;28;20114;-50
